• Join FlightAware (Why Join?)
  • Login
  • US Flag 
11:18PM EDT


 

Airport Tracker/Info


-or-


 

Live Flight TrackerFlight Track Log ✈ USC1801 ✈ 20-Jun-2013 ✈ KPNE - CYXU

Flight Track Log - Related Links

Times and Time Zones

All times are in EDT time to prevent confusion due to time zone crossing. See the USC1801 flight status page for this flight to view local times or setup timezone preferences in your user account.

Time Position Orientation Groundspeed Altitude Reporting Facility
EDT Latitude Longitude Course Direction KTS MPH feet Rate Location/Type
11:08AM 40.0833 -75.0167 237° Southwest 94 108 800  Level Philadelphia TRACON
11:09AM 40.0667 -75.0500 237° Southwest 117 135 2,000 1,080 Climbing Philadelphia TRACON
11:10AM 40.0833 -75.1000 294° West 131 151 3,000 480 Climbing Philadelphia TRACON
11:11AM 40.1000 -75.1500 294° West 163 188 3,000  Level Philadelphia TRACON
11:12AM 40.1167 -75.2000 294° West 171 197 3,000  Level Philadelphia TRACON
11:13AM 40.1500 -75.2500 311° West 171 197 3,000 120 Level Philadelphia TRACON
11:14AM 40.1833 -75.3000 311° West 168 193 3,300 480 Climbing Philadelphia TRACON
11:15AM 40.2000 -75.3333 303° West 150 173 4,000 180 Climbing Philadelphia TRACON
11:17AM 40.1791 -75.4081 303° West  Level FlightAware Approximate
11:24AM 40.4211 -75.6273 344° North  Level FlightAware Approximate
11:25AM 40.4661 -75.6446 344° North  Level FlightAware Approximate
11:26AM 40.5110 -75.6619 344° North  Level FlightAware Approximate
11:27AM 40.5559 -75.6792 344° North  Level FlightAware Approximate
11:28AM 40.5927 -75.7153 317° Northwest  Level FlightAware Approximate
11:29AM 40.6269 -75.7574 317° Northwest  Level FlightAware Approximate
11:30AM 40.6611 -75.7996 317° Northwest  Level FlightAware Approximate
11:31AM 40.6953 -75.8417 317° Northwest  Level FlightAware Approximate
11:32AM 40.7295 -75.8839 317° Northwest  Level FlightAware Approximate
11:33AM 40.7636 -75.9262 317° Northwest  Level FlightAware Approximate
11:34AM 40.7978 -75.9685 317° Northwest  Level FlightAware Approximate
11:35AM 40.8319 -76.0109 317° Northwest  Level FlightAware Approximate
11:35AM 40.8714 -76.0811 317° Northwest 166 191 8,000  Level New York Center
11:36AM 40.8662 -76.0530 317° Northwest  Level FlightAware Approximate
11:36AM 40.9008 -76.1217 314° West 172 198 7,900  Level New York Center
11:37AM 40.9006 -76.0950 317° Northwest  Level FlightAware Approximate
11:37AM 40.9322 -76.1683 312° West 172 198 8,000  Level New York Center
11:38AM 40.9350 -76.1371 317° Northwest  Level FlightAware Approximate
11:38AM 40.9672 -76.2206 312° West 172 198 7,900  Level New York Center
11:39AM 40.9694 -76.1791 317° Northwest  Level FlightAware Approximate
11:39AM 41.0008 -76.2617 317° Northwest 172 198 8,000  Level New York Center
11:40AM 41.0281 -76.3022 312° West 166 191 8,000 -60 Level New York Center
11:41AM 41.0633 -76.3492 315° West 171 197 7,900 -60 Descending New York Center
11:42AM 41.0986 -76.3961 315° West 171 197 7,900  Level New York Center
11:43AM 41.1253 -76.4453 306° West 171 197 7,900  Level New York Center
11:44AM 41.1586 -76.4894 315° West 166 191 8,000  Climbing New York Center
11:45AM 41.1858 -76.5331 310° West 171 197 7,900  Descending New York Center
11:46AM 41.2206 -76.5883 310° West 171 197 8,000  Climbing New York Center
11:47AM 41.2494 -76.6350 309° West 171 197 8,000 -60 Level New York Center
11:48AM 41.2803 -76.6847 310° West 171 197 7,900 -60 Descending New York Center
11:49AM 41.3114 -76.7317 311° West 171 197 7,900  Level New York Center
11:50AM 41.3400 -76.7811 308° West 171 197 8,000  Climbing New York Center
11:51AM 41.3561 -76.8378 291° West 166 191 8,000  Level New York Center
11:52AM 41.3761 -76.8922 296° West 166 191 8,100  Climbing New York Center
11:53AM 41.4003 -76.9469 301° West 166 191 8,100 -60 Level New York Center
11:54AM 41.4203 -77.0014 296° West 166 191 8,000 -60 Descending New York Center
11:55AM 41.4406 -77.0558 296° West 166 191 8,000  Level New York Center
11:56AM 41.4625 -77.1106 298° West 166 191 8,000  Level New York Center
11:57AM 41.4825 -77.1678 295° West 166 191 8,000  Level New York Center
11:58AM 41.5022 -77.2250 295° West 166 191 8,000  Level New York Center
11:59AM 41.5222 -77.2797 296° West 166 191 8,000  Level New York Center
12:00PM 41.5419 -77.3342 296° West 166 191 8,000  Level New York Center
12:02PM 41.5906 -77.4706 296° West 166 191 8,000  Level Cleveland Center
12:03PM 41.6106 -77.5169 300° West 173 199 8,000  Level Cleveland Center
12:04PM 41.6308 -77.5744 295° West 173 199 8,000  Level Cleveland Center
12:05PM 41.6489 -77.6264 295° West 168 193 8,000  Level Cleveland Center
12:06PM 41.6711 -77.6864 296° West 173 199 8,000  Level Cleveland Center
12:07PM 41.6914 -77.7411 296° West 173 199 8,000  Level Cleveland Center
12:08PM 41.7136 -77.7958 299° West 173 199 8,000  Level Cleveland Center
12:09PM 41.7317 -77.8508 294° West 173 199 8,000  Level Cleveland Center
12:10PM 41.7517 -77.9056 296° West 173 199 8,000  Level Cleveland Center
12:11PM 41.7736 -77.9603 298° West 173 199 8,000  Level Cleveland Center
12:12PM 41.7917 -78.0181 293° West 173 199 8,000 -60 Level Cleveland Center
12:13PM 41.8097 -78.0731 294° West 168 193 7,900  Descending Cleveland Center
12:14PM 41.8317 -78.1281 298° West 168 193 8,000  Climbing Cleveland Center
12:15PM 41.8536 -78.1828 298° West 168 193 8,000  Level Cleveland Center
12:16PM 41.8736 -78.2406 295° West 168 193 8,000  Level Cleveland Center
12:17PM 41.8956 -78.2958 298° West 168 193 8,000  Level Cleveland Center
12:18PM 41.9175 -78.3592 295° West 168 193 8,000  Level Cleveland Center
12:19PM 41.9375 -78.4169 295° West 168 193 8,000  Level Cleveland Center
12:20PM 41.9572 -78.4694 297° West 168 193 8,000  Level Cleveland Center
12:21PM 41.9769 -78.5275 295° West 168 193 8,000  Level Cleveland Center
12:22PM 41.9989 -78.5828 298° West 168 193 8,000  Level Cleveland Center
12:23PM 42.0186 -78.6350 297° West 168 193 8,000  Level Cleveland Center
12:24PM 42.0361 -78.6933 292° West 173 199 8,000 -60 Level Cleveland Center
12:25PM 42.0558 -78.7514 295° West 173 199 7,900  Descending Cleveland Center
12:26PM 42.0756 -78.8042 297° West 173 199 8,000  Climbing Cleveland Center
12:27PM 42.0972 -78.8594 298° West 173 199 8,000  Level Cleveland Center
12:28PM 42.1211 -78.9203 298° West 173 199 8,000  Level Cleveland Center
12:29PM 42.1383 -78.9675 296° West 180 207 8,000  Level Cleveland Center
12:30PM 42.1622 -79.0397 294° West 180 207 8,000  Level Cleveland Center
12:31PM 42.1797 -79.0925 294° West 166 191 8,000  Level Cleveland Center
12:32PM 42.1947 -79.1397 293° West 161 185 8,000  Level Cleveland Center
12:33PM 42.2247 -79.1981 305° West 161 185 8,000  Level Cleveland Center
12:34PM 42.2461 -79.2453 301° West 167 192 8,000  Level Cleveland Center
12:35PM 42.2675 -79.3008 298° West 167 192 8,000  Level Cleveland Center
12:36PM 42.2933 -79.3622 300° West 167 192 8,000  Level Cleveland Center
12:37PM 42.3167 -79.4150 301° West 167 192 8,000  Level Cleveland Center
12:38PM 42.3361 -79.4653 298° West 167 192 8,000  Level Cleveland Center
12:40PM 42.3667 -79.5500 296° West 170 196 8,000  Level Toronto Center
12:41PM 42.3833 -79.5833 304° West 160 184 8,000  Level Toronto Center
12:42PM 42.4167 -79.6333 312° West 170 196 8,000  Level Toronto Center
12:43PM 42.4333 -79.7000 289° West 170 196 8,000  Level Toronto Center
12:44PM 42.4667 -79.7500 312° West 170 196 8,000  Level Toronto Center
12:45PM 42.4833 -79.8167 289° West 170 196 8,000 -60 Level Toronto Center
12:46PM 42.5000 -79.8667 294° West 170 196 7,900  Descending Toronto Center
12:47PM 42.5333 -79.9000 324° Northwest 160 184 8,000  Climbing Toronto Center
12:48PM 42.5500 -79.9667 289° West 170 196 8,000  Level Toronto Center
12:49PM 42.5667 -80.0167 294° West 170 196 8,000  Level Toronto Center
12:50PM 42.6000 -80.0833 304° West 170 196 8,000 -60 Level Toronto Center
12:51PM 42.6167 -80.1333 294° West 170 196 7,900 -60 Descending Toronto Center
12:52PM 42.6333 -80.2000 289° West 170 196 7,900  Level Toronto Center
12:53PM 42.6667 -80.2500 312° West 170 196 8,000  Climbing Toronto Center
12:54PM 42.6833 -80.2833 304° West 170 196 8,000  Level Toronto Center
12:55PM 42.7167 -80.3667 299° West 170 196 8,000  Level Toronto Center
12:56PM 42.7333 -80.4000 304° West 170 196 8,000 -60 Level Toronto Center
12:57PM 42.7500 -80.4667 289° West 170 196 7,900  Descending Toronto Center
12:58PM 42.7833 -80.5167 312° West 170 196 8,000  Climbing Toronto Center
12:59PM 42.8000 -80.5833 289° West 170 196 8,000  Level Toronto Center
01:00PM 42.8333 -80.6333 312° West 170 196 8,000 -360 Level Toronto Center
01:01PM 42.8500 -80.7000 289° West 170 196 7,300 -720 Descending Toronto Center
01:02PM 42.8667 -80.7500 294° West 180 207 6,600 -720 Descending Toronto Center
01:03PM 42.8833 -80.8167 289° West 190 219 5,900 -720 Descending Toronto Center
01:04PM 42.9167 -80.8667 312° West 190 219 5,200 -480 Descending Toronto Center
01:05PM 42.9333 -80.9333 289° West 180 207 5,000 -120 Descending Toronto Center
01:06PM 42.9667 -80.9833 312° West 160 184 5,000  Level Toronto Center
01:07PM 43.0000 -81.0167 324° Northwest 160 184 5,000  Level Toronto Center
01:08PM 43.0333 -81.0500 324° Northwest 150 173 5,000  Level Toronto Center
01:09PM 43.0667 -81.0667 340° North 150 173 5,000 -300 Level Toronto Center
01:10PM 43.1000 -81.1167 312° West 140 161 4,400 -960 Descending Toronto Center
01:11PM 43.0833 -81.1667 245° Southwest 140 161 3,100 -1,200 Descending Toronto Center
01:12PM 43.0667 -81.1833 216° Southwest 130 150 2,100 -960 Descending Toronto Center
01:13PM 43.0333 -81.1667 160° South 110 127 1,200 -900 Descending Toronto Center